Latest Weather Observations for Middle Point

IDD60901

Issued at 8:45 pm CST Friday 24 October 2014 (issued every 10 minutes, with the page automatically refreshed every 10 minutes)

About weather observations | Map of Darwin area stations | Latest observations for Darwin area | Other Formats
Station Details ID: 014041 Name: MIDDLE POINT Lat: -12.61 Lon: 131.30 Height: 14.1 m
Data from the previous 72 hours. | See also: Recent months at Middle Point
Date/Time
CST
Tmp

°C
App
Tmp
°C
Dew
Point
°C
Rel
Hum
%
Delta-T

°C
Wind Press
QNH
hPa
Press
MSL
hPa
Rain
since
9 am
mm
Dir
 
Spd
km/h
Gust
km/h
Spd
kts
Gust
kts
24/08:30pm 26.7 29.3 20.5 69 4.1 N 7 9 4 5 1011.8 1011.6 0.0
24/08:00pm 26.9 29.5 20.0 66 4.5 WNW 6 7 3 4 1011.4 1011.2 0.0
24/07:30pm 27.8 30.0 20.4 64 4.9 NW 9 17 5 9 1011.1 1010.9 0.0
24/07:00pm 29.0 29.1 20.4 59 5.7 NNE 20 30 11 16 1009.8 1009.7 0.0
24/06:30pm 30.1 29.8 19.2 52 7.1 N 19 28 10 15 1009.6 1009.5 0.0
24/06:00pm 31.4 29.6 16.9 41 9.2 N 22 30 12 16 1009.3 1009.2 0.0
24/05:30pm 32.8 29.8 15.8 36 10.6 NNE 26 32 14 17 1008.9 1008.8 0.0
24/05:00pm 34.0 31.8 15.0 32 11.8 N 20 30 11 16 1008.8 1008.7 0.0
24/04:30pm 34.9 32.8 15.3 31 12.3 N 20 30 11 16 1008.7 1008.6 0.0
24/04:00pm 34.0 31.3 15.5 33 11.6 NNE 24 35 13 19 1008.9 1008.8 0.0
24/03:30pm 35.1 32.3 16.4 32 11.9 N 26 37 14 20 1009.0 1008.9 0.0
24/03:00pm 35.5 32.7 17.2 33 11.8 N 28 39 15 21 1009.3 1009.2 0.0
24/02:30pm 35.5 32.9 16.8 33 12.0 N 26 37 14 20 1009.4 1009.3 0.0
24/02:00pm 36.7 35.8 16.8 30 12.8 N 17 28 9 15 1009.6 1009.5 0.0
24/01:30pm 37.0 35.1 11.8 22 15.1 E 13 39 7 21 1010.1 1010.0 0.0
24/01:00pm 36.4 33.2 11.9 23 14.7 NE 20 32 11 17 1010.6 1010.5 0.0
24/12:30pm 35.9 34.9 13.4 26 13.7 E 11 30 6 16 1011.5 1011.3 0.0
24/12:00pm 35.2 31.9 12.8 26 13.5 E 22 33 12 18 1012.2 1012.0 0.0
24/11:30am 34.1 33.3 14.1 30 12.3 ENE 11 28 6 15 1012.8 1012.6 0.0
24/11:00am 33.7 33.6 16.1 34 11.1 E 11 22 6 12 1013.3 1013.1 0.0
24/10:30am 33.4 32.3 15.4 34 11.2 E 15 26 8 14 1013.8 1013.6 0.0
24/10:00am 32.3 31.3 16.6 39 9.9 E 17 26 9 14 1014.4 1014.2 0.0
24/09:30am 30.8 30.2 17.5 45 8.5 ENE 17 26 9 14 1014.7 1014.5 0.0
24/09:00am 30.0 31.2 20.0 55 6.6 NNE 13 22 7 12 1014.8 1014.6 0.0
24/08:30am 28.9 31.6 19.5 57 6.1 ENE 4 7 2 4 1014.8 1014.6 0.0
24/08:00am 27.6 30.3 20.2 64 4.8 E 6 7 3 4 1014.5 1014.3 0.0
24/07:30am 25.7 29.6 20.3 72 3.5 CALM 0 0 0 0 1014.1 1013.9 0.0
24/07:00am 22.5 26.0 20.4 88 1.4 NE 2 4 1 2 1013.8 1013.6 0.0
24/06:30am 20.6 23.8 18.9 90 1.1 CALM 0 2 0 1 1013.6 1013.4 0.0
24/06:00am 20.2 22.4 18.3 89 1.2 NE 4 4 2 2 1013.2 1013.0 0.0
24/05:30am 20.6 23.5 18.2 86 1.5 CALM 0 0 0 0 1013.0 1012.8 0.0
24/05:00am 21.9 25.5 19.8 88 1.3 CALM 0 0 0 0 1012.8 1012.6 0.0
24/04:30am 21.0 24.2 18.9 88 1.3 CALM 0 0 0 0 1012.8 1012.6 0.0
24/04:00am 21.4 24.8 19.3 88 1.3 CALM 0 0 0 0 1012.6 1012.4 0.0
24/03:30am 22.1 25.3 18.9 82 2.0 CALM 0 0 0 0 1012.6 1012.4 0.0
24/03:00am 22.8 26.7 20.3 86 1.6 CALM 0 0 0 0 1012.6 1012.4 0.0
24/02:30am 22.3 25.5 18.9 81 2.1 CALM 0 0 0 0 1012.9 1012.7 0.0
24/02:00am 23.9 27.4 19.6 77 2.8 CALM 0 0 0 0 1013.4 1013.2 0.0
24/01:30am 24.8 27.9 20.3 76 2.9 NE 4 6 2 3 1013.6 1013.4 0.0
24/01:00am 25.9 28.7 20.5 72 3.5 ENE 6 7 3 4 1013.9 1013.7 0.0
24/12:30am 26.7 30.4 20.8 70 3.9 N 2 4 1 2 1014.0 1013.8 0.0
24/12:00am 26.4 29.3 20.7 71 3.7 N 6 6 3 3 1014.1 1013.9 0.0
 
Date/Time
CST
Tmp

°C
App
Tmp
°C
Dew
Point
°C
Rel
Hum
%
Delta-T

°C
Wind Press
QNH
hPa
Press
MSL
hPa
Rain
since
9 am
mm
Dir
 
Spd
km/h
Gust
km/h
Spd
kts
Gust
kts
23/11:30pm 27.4 30.0 21.2 69 4.1 N 9 13 5 7 1014.1 1013.9 0.0
23/11:00pm 26.6 29.3 20.7 70 3.9 N 7 9 4 5 1014.0 1013.8 0.0
23/10:30pm 25.9 28.3 20.9 74 3.3 N 9 13 5 7 1013.9 1013.7 0.0
23/10:00pm 24.5 26.2 18.0 67 4.1 N 6 7 3 4 1013.4 1013.2 0.0
23/09:30pm 25.7 28.3 18.4 64 4.6 N 2 6 1 3 1013.0 1012.8 0.0
23/09:00pm 25.7 27.5 18.4 64 4.6 N 6 9 3 5 1012.3 1012.1 0.0
23/08:30pm 26.0 26.9 17.6 60 5.3 N 9 11 5 6 1011.8 1011.6 0.0
23/08:00pm 27.0 27.7 15.7 50 6.9 N 6 7 3 4 1011.3 1011.1 0.0
23/07:30pm 27.6 27.8 14.6 45 7.8 N 7 9 4 5 1010.9 1010.7 0.0
23/07:00pm 29.0 28.4 13.6 38 9.2 N 9 15 5 8 1010.0 1009.9 0.0
23/06:30pm 31.0 28.6 12.8 32 10.8 N 17 24 9 13 1009.6 1009.5 0.0
23/06:00pm 32.8 29.8 11.9 28 12.3 N 19 24 10 13 1009.1 1009.0 0.0
23/05:30pm 33.8 31.4 12.7 27 12.7 N 17 22 9 12 1008.7 1008.6 0.0
23/05:00pm 34.3 31.7 13.7 29 12.6 N 20 28 11 15 1008.6 1008.5 0.0
23/04:30pm 34.4 31.3 13.3 28 12.8 N 22 30 12 16 1008.6 1008.5 0.0
23/04:00pm 35.7 33.1 13.8 27 13.4 N 20 26 11 14 1008.8 1008.7 0.0
23/03:30pm 35.0 32.0 13.8 28 13.0 N 22 32 12 17 1008.8 1008.7 0.0
23/03:00pm 36.9 35.8 13.0 24 14.6 NW 11 20 6 11 1009.2 1009.1 0.0
23/02:30pm 37.1 34.2 9.6 19 16.0 ENE 15 26 8 14 1009.4 1009.3 0.0
23/02:00pm 37.1 33.5 10.4 20 15.7 ENE 20 24 11 13 1009.8 1009.7 0.0
23/01:30pm 36.8 34.6 9.4 19 15.8 SE 11 24 6 13 1010.5 1010.4 0.0
23/01:00pm 35.9 32.0 9.4 20 15.2 SE 20 28 11 15 1011.3 1011.1 0.0
23/12:30pm 36.3 34.6 11.2 22 14.9 ESE 11 20 6 11 1011.9 1011.7 0.0
23/12:00pm 35.6 33.2 11.3 23 14.4 NE 15 28 8 15 1012.4 1012.2 0.0
23/11:30am 34.0 32.1 11.8 26 13.1 ENE 13 22 7 12 1013.0 1012.8 0.0
23/11:00am 34.1 31.6 12.4 26 13.0 E 17 32 9 17 1013.5 1013.3 0.0
23/10:30am 33.9 32.3 13.9 30 12.2 E 15 30 8 16 1013.9 1013.7 0.0
23/10:00am 32.6 30.7 14.2 32 11.2 NE 17 26 9 14 1014.4 1014.2 0.0
23/09:30am 31.2 31.1 17.9 45 8.5 ENE 15 26 8 14 1014.5 1014.3 0.0
23/09:00am 30.5 32.5 20.7 55 6.5 NE 11 20 6 11 1014.8 1014.6 0.0
23/08:30am 29.2 31.6 20.9 61 5.5 NE 9 13 5 7 1014.8 1014.6 0.0
23/08:00am 27.9 31.0 21.4 67 4.3 ENE 7 11 4 6 1014.6 1014.4 0.0
23/07:30am 25.6 29.8 21.7 79 2.6 NE 2 7 1 4 1014.4 1014.2 0.0
23/07:00am 21.7 25.5 20.2 91 1.0 CALM 0 0 0 0 1014.0 1013.8 0.0
23/06:30am 20.3 23.4 18.6 90 1.1 CALM 0 0 0 0 1013.7 1013.5 0.0
23/06:00am 21.3 24.9 19.8 91 1.0 CALM 0 0 0 0 1013.4 1013.2 0.0
23/05:30am 21.1 24.0 19.0 88 1.3 NNW 2 6 1 3 1012.9 1012.7 0.0
23/05:00am 22.3 25.1 20.4 89 1.2 ENE 6 7 3 4 1012.6 1012.4 0.0
23/04:30am 22.6 26.4 20.9 90 1.1 NNW 2 4 1 2 1012.5 1012.3 0.0
23/04:00am 21.9 24.7 19.6 87 1.5 WNW 4 6 2 3 1012.4 1012.2 0.0
23/03:30am 22.7 26.5 20.2 86 1.6 CALM 0 2 0 1 1012.4 1012.2 0.0
23/03:00am 24.8 28.4 21.3 81 2.3 E 4 4 2 2 1012.7 1012.5 0.0
23/02:30am 25.3 29.4 21.6 80 2.5 NE 2 6 1 3 1012.6 1012.4 0.0
23/02:00am 25.3 29.8 21.6 80 2.5 CALM 0 0 0 0 1013.2 1013.0 0.0
23/01:30am 25.7 30.1 21.4 77 2.9 CALM 0 0 0 0 1013.3 1013.1 0.0
23/01:00am 26.3 29.6 21.5 75 3.2 NNE 6 9 3 5 1013.6 1013.4 0.0
23/12:30am 27.5 30.4 21.8 71 3.8 N 9 13 5 7 1013.7 1013.5 0.0
23/12:00am 27.6 30.3 22.1 72 3.7 N 11 15 6 8 1013.8 1013.6 0.0
 
Date/Time
CST
Tmp

°C
App
Tmp
°C
Dew
Point
°C
Rel
Hum
%
Delta-T

°C
Wind Press
QNH
hPa
Press
MSL
hPa
Rain
since
9 am
mm
Dir
 
Spd
km/h
Gust
km/h
Spd
kts
Gust
kts
22/11:30pm 27.4 30.1 22.1 73 3.6 N 11 15 6 8 1013.8 1013.6 0.0
22/11:00pm 27.6 30.0 22.3 73 3.6 N 13 19 7 10 1013.9 1013.7 0.0
22/10:30pm 27.1 29.9 22.3 75 3.2 N 11 15 6 8 1013.5 1013.3 0.0
22/10:00pm 27.7 30.7 22.6 74 3.5 N 11 17 6 9 1013.3 1013.1 0.0
22/09:30pm 27.6 30.7 22.8 75 3.3 NNE 11 15 6 8 1013.1 1012.9 0.0
22/09:00pm 27.6 30.8 22.3 73 3.6 N 9 13 5 7 1012.6 1012.4 0.0
22/08:30pm 27.9 29.9 20.7 65 4.8 N 11 17 6 9 1012.0 1011.8 0.0
22/08:00pm 28.4 30.1 20.2 61 5.4 N 11 17 6 9 1011.6 1011.4 0.0
22/07:30pm 29.5 30.9 19.5 55 6.5 N 11 15 6 8 1011.1 1010.9 0.0
22/07:00pm 29.8 31.3 18.9 52 7.1 N 9 13 5 7 1010.3 1010.2 0.0
22/06:30pm 31.7 32.2 18.3 45 8.7 N 13 17 7 9 1009.9 1009.8 0.0
22/06:00pm 33.6 34.5 19.3 43 9.4 NNW 13 19 7 10 1009.4 1009.3 0.0
22/05:30pm 34.3 34.4 17.5 36 10.8 N 13 17 7 9 1009.1 1009.0 0.0
22/05:00pm 35.9 34.1 14.5 27 13.3 N 17 22 9 12 1008.8 1008.7 0.0
22/04:30pm 35.8 32.5 10.8 22 14.7 ESE 19 32 10 17 1008.9 1008.8 0.0
22/04:00pm 37.1 33.9 11.1 21 15.4 ESE 19 30 10 16 1009.0 1008.9 0.0
22/03:30pm 35.6 32.2 12.5 24 13.9 NE 22 30 12 16 1009.1 1009.0 0.0
22/03:00pm 36.7 35.5 12.8 24 14.5 ESE 11 20 6 11 1009.5 1009.4 0.0
22/02:30pm 36.8 34.9 14.1 25 14.1 E 17 22 9 12 1010.0 1009.9 0.0
22/02:00pm 36.1 34.9 14.1 26 13.6 NE 13 22 7 12 1010.7 1010.6 0.0
22/01:30pm 35.5 34.4 15.3 30 12.7 SE 15 26 8 14 1011.6 1011.4 0.0
22/01:00pm 34.6 33.6 14.5 30 12.4 ESE 13 22 7 12 1012.2 1012.0 0.0
22/12:30pm 35.6 35.1 15.9 31 12.5 E 13 33 7 18 1012.9 1012.7 0.0
22/12:00pm 33.8 33.2 15.7 33 11.3 E 13 24 7 13 1013.4 1013.2 0.0
22/11:30am 33.9 33.3 16.7 35 10.9 ENE 15 20 8 11 1013.9 1013.7 0.0
22/11:00am 32.4 33.6 18.2 42 9.2 ESE 9 17 5 9 1014.4 1014.2 0.0
22/10:30am 32.6 33.8 19.1 44 8.8 ENE 11 22 6 12 1015.0 1014.8 0.0
22/10:00am 31.5 33.4 19.8 49 7.7 ESE 9 19 5 10 1015.4 1015.2 0.0
22/09:30am 31.1 33.2 20.1 52 7.3 E 9 26 5 14 1015.5 1015.3 0.0
22/09:00am 30.2 33.2 21.3 59 6.0 N 7 19 4 10 1015.4 1015.2 0.0
22/08:30am 28.4 31.3 20.7 63 5.1 N 6 9 3 5 1015.0 1014.8 0.0
22/08:00am 27.5 32.3 22.2 73 3.6 CALM 0 2 0 1 1014.7 1014.5 0.0
22/07:30am 24.3 28.6 22.0 87 1.5 W 2 6 1 3 1014.4 1014.2 0.0
22/07:00am 21.7 25.6 20.3 92 0.9 CALM 0 0 0 0 1014.0 1013.8 0.0
22/06:30am 20.4 23.7 19.1 92 0.8 CALM 0 0 0 0 1013.7 1013.5 0.0
22/06:00am 21.0 24.6 19.7 92 0.8 CALM 0 0 0 0 1013.4 1013.2 0.0
22/05:30am 21.2 24.8 19.7 91 1.0 CALM 0 0 0 0 1013.3 1013.1 0.0
22/05:00am 20.7 22.8 19.0 90 1.1 NW 6 7 3 4 1012.9 1012.7 0.0
22/04:30am 21.2 23.1 19.7 91 1.0 N 9 11 5 6 1013.1 1012.9 0.0
22/04:00am 22.2 25.8 19.7 86 1.6 CALM 0 2 0 1 1013.4 1013.2 0.0
22/03:30am 22.9 25.6 20.6 87 1.5 E 7 7 4 4 1013.4 1013.2 0.0
22/03:00am 23.2 25.9 20.7 86 1.6 ENE 7 11 4 6 1013.4 1013.2 0.0
22/02:30am 23.6 26.6 20.9 85 1.8 NNE 6 7 3 4 1013.4 1013.2 0.0
22/02:00am 22.8 25.3 19.8 83 1.9 NNW 6 6 3 3 1013.4 1013.2 0.0
22/01:30am 24.0 27.0 20.9 83 2.0 N 6 6 3 3 1013.7 1013.5 0.0
22/01:00am 24.3 27.6 20.8 81 2.3 NNW 4 4 2 2 1014.1 1013.9 0.0
22/12:30am 24.9 28.5 21.2 80 2.4 NNW 4 7 2 4 1014.4 1014.2 0.0
22/12:00am 25.6 28.7 21.5 78 2.7 NNW 7 13 4 7 1014.6 1014.4 0.0
 
Date/Time
CST
Tmp

°C
App
Tmp
°C
Dew
Point
°C
Rel
Hum
%
Delta-T

°C
Wind Press
QNH
hPa
Press
MSL
hPa
Rain
since
9 am
mm
Dir
 
Spd
km/h
Gust
km/h
Spd
kts
Gust
kts
21/11:30pm 25.4 28.2 21.5 79 2.6 N 9 11 5 6 1014.8 1014.6 0.0
21/11:00pm 25.0 27.9 21.1 79 2.6 NNW 7 9 4 5 1014.9 1014.7 0.0
21/10:30pm 26.0 28.9 21.0 74 3.3 N 7 9 4 5 1014.8 1014.6 0.0
21/10:00pm 26.7 28.9 21.2 72 3.6 N 11 19 6 10 1014.3 1014.1 0.0
21/09:30pm 27.1 28.3 20.7 68 4.2 N 15 19 8 10 1014.0 1013.8 0.0
21/09:00pm 26.9 28.7 19.5 64 4.8 N 9 13 5 7 1013.5 1013.3 0.0

Latest Capital City Observations: Canberra | Sydney | Melbourne | Brisbane | Adelaide | Perth | Hobart | Darwin

Other Formats:

Comma delimited format used in spreadsheet applications
http://www.bom.gov.au/fwo/IDD60901/IDD60901.95121.axf

JavaScript Object Notation format (JSON) in row-major order
http://www.bom.gov.au/fwo/IDD60901/IDD60901.95121.json